Terminal Aerodrome Forecast
Issued by NWS

Home | Current Version | Previous Version | Text Only | Print | Product List | Glossary On
Versions: 1 2 3 4 5 6 7 8 9 10 11 12 13 14 15 16 17 18
000
FTUS45 KRIW 260500
TAFBPI
TAF
KBPI 260539Z 2606/2706 VRB05KT P6SM VCSH SCT040 BKN060
     FM261000 VRB04KT P6SM VCFG SCT004 SCT080
     FM261600 VRB06KT P6SM VCSH SCT040 BKN060
     FM262100 VRB10G18KT P6SM VCTS SCT040 BKN060CB
     FM270200 34007KT P6SM VCSH BKN060=

USA.gov is the U.S. government's official web portal to all federal, state and local government web resources and services.